Terminal Aerodrome Forecast
Issued by NWS

Current Version | Previous Version | Text Only | Print | Product List | Glossary On
Versions: 1 2 3 4 5 6 7 8 9 10 11 12 13 14 15 16 17
000
FTUS43 KBIS 210520
TAFJMS
TAF
KJMS 210520Z 2106/2206 30025G35KT P6SM -SN BKN025
     FM211200 32020G28KT P6SM SCT025 BKN080
     FM211500 32019KT P6SM SCT100
     FM220100 30010KT P6SM FEW200
     FM220300 28005KT P6SM FEW200=

USA.gov is the U.S. government's official web portal to all federal, state and local government web resources and services.